EDSBEDDS

Guest
Details From EDSB - Karlsruhe Baden-Baden
To EDDS - Stuttgart
Flight Number -
Tags decoded
Created
Modified
Stats Distance 55 nm / 101 km
Max Altitude 0 ft / 0 m
Waypoints 3
Social Downloads 0
Likes 0
Share VATSIM

Download

Looking for another format? Having issues loading an existing format? Contact us
Advertisement - Login to hide

Notes

Requested: EDSB KRH EDDS

Route

EDSB KRH EDDS

ID Type Via Altitude (ft/m) Position (lat/lon) Dist (leg/tot) Name
O EDSB APT - 0 / 0 48.77934 / 8.08051 - / 0 nm Karlsruhe Baden-Baden
KRH VOR - 0 / 0 48.99294 / 8.58424 23 / 23 nm KARLSRUHE
O EDDS APT - 0 / 0 48.68985 / 9.22197 31 / 54 nm Stuttgart

Altitude Profile

Advertisement - Login to hide

EDSB

Details ICAO EDSB (FKB)
Name Karlsruhe Baden-Baden
Region Germany - Civil
Timezone Europe/Berlin (UTC+1.0)
Stats Elevation 409 ft / 125 m (AMSL)
Location 48.779300° 8.080510°
Runways 1
Magnetic Variation 2.349° E

METAR

EDSB 131850Z 03010KT 9000 FEW032 OVC057 01/M03 Q1016

Decode

TAF

TAF EDSB 131700Z 1318/1418 04009KT 9999 BKN035

Decode

Departure Runways

ID Width Length Bearing (true/mag) Surface Threshold Overrun Markings Lighting
03 148 ft / 45 m 9,852 ft / 3,003 m 31.69° / 29.34° ASPHALT 856 ft / 261 m 190 ft / 58 m PREC-APP EDGE THRESHOLD MALS
21 148 ft / 45 m 9,852 ft / 3,003 m 211.70° / 209.35° ASPHALT 860 ft / 262 m 187 ft / 57 m PREC-APP EDGE THRESHOLD RAIL

EDDS

Details ICAO EDDS (STR)
Name Stuttgart
Region Germany - Civil
Timezone Europe/Berlin (UTC+1.0)
Stats Elevation 1,271 ft / 387 m (AMSL)
Location 48.689800° 9.221970°
Runways 1
Magnetic Variation 2.649° E

METAR

EDDS 131920Z 05008KT 9999 BKN028 M00/M04 Q1014 NOSIG

Decode

TAF

TAF EDDS 131700Z 1318/1418 06007KT 9999 BKN030

Decode

Destination Runways

ID Width Length Bearing (true/mag) Surface Threshold Overrun Markings Lighting
07 148 ft / 45 m 10,985 ft / 3,348 m 74.04° / 71.39° CONCRETE 997 ft / 304 m 138 ft / 42 m PREC-APP CENTERLINE EDGE THRESHOLD ALSF-II REIL-OMNI
25 148 ft / 45 m 10,985 ft / 3,348 m 254.07° / 251.42° CONCRETE 0 ft / 0 m 144 ft / 44 m PREC-APP CENTERLINE EDGE THRESHOLD ALSF-II REIL-OMNI

Approach Navaids

Runway Type Ident Frequency Range Bearing (true/mag) Slope Elevation
07 LOC-ILS ISTE 110.90 MHz 18 nm / 33 km 73.99° / 71.34 ° - 1,181 ft / 360 m (AMSL)
07 OM OM - - 73.97° / 71.32 ° - 1,273 ft / 388 m (AMSL)
07 GS ISTE 110.90 MHz 10 nm / 19 km 74.94° / 72.29 ° 3.00° 1,267 ft / 386 m (AMSL)
07 MM MM - - 73.97° / 71.32 ° - 1,273 ft / 388 m (AMSL)
07 DME ISTE 115.45 MHz 18 nm / 33 km - - 1,332 ft / 406 m (AMSL)
25 DME ISTW 115.45 MHz 18 nm / 33 km - - 1,332 ft / 406 m (AMSL)
25 MM MM - - 253.97° / 251.32 ° - 1,273 ft / 388 m (AMSL)
25 GS ISTW 109.90 MHz 10 nm / 19 km 254.94° / 252.29 ° 3.00° 1,181 ft / 360 m (AMSL)
25 LOC-ILS ISTW 109.90 MHz 18 nm / 33 km 253.95° / 251.30 ° - 1,267 ft / 386 m (AMSL)
25 OM OM - - 253.97° / 251.32 ° - 1,273 ft / 388 m (AMSL)

Popular Alternatives